Time;durP1;ratioP1;P1;durP2;ratioP2;P2;SDS_P1;SDS_P2;PMS_P1;PMS_P2;Temp;Humidity;BMP_temperature;BMP_pressure;BME280_temperature;BME280_humidity;BME280_pressure;Samples;Min_cycle;Max_cycle;Signal;HPM_P1;HPM_P2
2022/10/28 00:01:09;;;;;;;4.83;3.10;;;12.90;99.90;13.10;101288.00;;;;4908897;28;87060;-63
2022/10/28 00:03:41;;;;;;;6.97;4.67;;;13.00;99.90;13.20;101290.00;;;;4914157;28;90290;-63
2022/10/28 00:06:10;;;;;;;5.30;3.80;;;13.10;99.90;13.20;101287.00;;;;4911815;28;88515;-63
2022/10/28 00:08:36;;;;;;;4.17;3.43;;;13.20;99.90;13.30;101290.00;;;;4914900;28;88826;-64
2022/10/28 00:11:04;;;;;;;3.50;3.20;;;13.20;99.90;13.30;101297.00;;;;4914409;28;95096;-63
2022/10/28 00:13:30;;;;;;;9.63;3.73;;;13.30;99.90;13.20;101288.00;;;;4915059;28;87998;-65
2022/10/28 00:16:04;;;;;;;7.20;3.40;;;13.30;99.90;13.20;101288.00;;;;4911368;28;118141;-62
2022/10/28 00:18:30;;;;;;;3.37;2.90;;;13.20;99.90;13.00;101280.00;;;;4917356;28;88075;-64
2022/10/28 00:21:01;;;;;;;5.80;3.23;;;13.10;99.90;13.00;101281.00;;;;4914157;28;108950;-64
2022/10/28 00:23:27;;;;;;;2.67;2.37;;;13.00;99.90;12.90;101289.00;;;;4912606;28;88421;-64
2022/10/28 00:25:53;;;;;;;4.90;2.20;;;12.90;99.90;12.80;101307.00;;;;4916689;28;118568;-62
2022/10/28 00:28:18;;;;;;;5.63;2.87;;;12.90;99.90;12.70;101308.00;;;;4915208;28;108719;-65
2022/10/28 00:30:44;;;;;;;2.43;2.23;;;12.80;99.90;12.60;101310.00;;;;4913267;28;109154;-63
2022/10/28 00:33:10;;;;;;;3.73;3.43;;;12.70;99.90;12.50;101307.00;;;;4911281;28;119445;-62
2022/10/28 00:35:35;;;;;;;3.20;2.43;;;12.60;99.90;12.40;101303.00;;;;4913515;28;106847;-62
2022/10/28 00:38:01;;;;;;;7.83;2.77;;;12.50;99.90;12.30;101309.00;;;;4912171;28;110011;-63
2022/10/28 00:40:27;;;;;;;2.77;2.07;;;12.40;99.90;12.20;101298.00;;;;4913462;28;107077;-62
2022/10/28 00:42:52;;;;;;;3.00;2.67;;;12.30;99.90;12.10;101295.00;;;;4912858;28;109103;-62
2022/10/28 00:45:18;;;;;;;2.93;2.67;;;12.20;99.90;12.10;101290.00;;;;4907510;28;116795;-64
2022/10/28 00:47:56;;;;;;;4.07;2.20;;;12.10;99.90;12.00;101296.00;;;;4916641;28;100737;-64
2022/10/28 00:50:43;;;;;;;3.47;2.63;;;12.10;99.90;11.90;101290.00;;;;4911953;28;101738;-64
2022/10/28 00:53:19;;;;;;;2.80;2.20;;;12.00;99.90;11.80;101292.00;;;;4910750;28;88067;-64
2022/10/28 00:55:46;;;;;;;4.20;2.83;;;11.90;99.90;11.80;101297.00;;;;4910005;28;87953;-64
2022/10/28 00:58:13;;;;;;;6.13;3.00;;;11.90;99.90;11.80;101294.00;;;;4915261;28;99932;-64
2022/10/28 01:00:38;;;;;;;2.50;1.93;;;11.80;99.90;11.80;101285.00;;;;4914007;28;107544;-64
2022/10/28 01:03:04;;;;;;;2.30;2.10;;;11.80;99.90;11.80;101284.00;;;;4914758;28;113549;-64
2022/10/28 01:05:33;;;;;;;3.90;2.60;;;11.80;99.90;11.80;101283.00;;;;4915471;28;87767;-64
2022/10/28 01:08:02;;;;;;;4.23;2.33;;;11.80;99.90;11.80;101287.00;;;;4909994;28;87796;-62
2022/10/28 01:11:07;;;;;;;3.47;2.73;;;11.80;99.90;11.80;101282.00;;;;4918138;28;87902;-64
2022/10/28 01:14:03;;;;;;;2.63;2.43;;;11.80;99.90;11.80;101271.00;;;;4916177;28;87847;-64
2022/10/28 01:16:48;;;;;;;4.23;3.03;;;11.80;99.90;11.80;101279.00;;;;4917043;28;105329;-64
2022/10/28 01:19:42;;;;;;;4.50;3.13;;;11.90;99.90;11.90;101276.00;;;;4914547;28;87938;-64
2022/10/28 01:22:21;;;;;;;3.50;3.10;;;11.90;99.90;11.90;101279.00;;;;4919705;28;87940;-64
2022/10/28 01:25:23;;;;;;;3.67;3.10;;;11.90;99.90;11.90;101276.00;;;;4921616;28;89869;-64
2022/10/28 01:28:26;;;;;;;3.67;2.70;;;11.90;99.90;11.90;101274.00;;;;4912124;28;113118;-65
2022/10/28 01:31:39;;;;;;;2.33;2.13;;;12.00;99.90;12.00;101279.00;;;;4919891;28;87825;-63
2022/10/28 01:34:33;;;;;;;8.33;2.50;;;12.00;99.90;12.00;101269.00;;;;4898456;28;88044;-64
2022/10/28 01:37:12;;;;;;;3.03;2.30;;;12.10;99.90;12.00;101268.00;;;;4914956;28;113010;-65
2022/10/28 01:40:07;;;;;;;4.03;3.63;;;12.10;99.90;12.10;101259.00;;;;4913733;28;110467;-63
2022/10/28 01:43:00;;;;;;;5.37;3.17;;;12.10;99.90;12.10;101261.00;;;;4909068;28;103104;-64
2022/10/28 01:45:34;;;;;;;10.40;3.57;;;12.10;99.90;12.10;101258.00;;;;4921022;28;86981;-63
2022/10/28 01:48:04;;;;;;;5.00;3.33;;;12.10;99.90;12.10;101255.00;;;;4915896;28;89036;-63
2022/10/28 01:50:45;;;;;;;3.77;2.47;;;12.10;99.90;12.10;101260.00;;;;4914959;28;103032;-63
2022/10/28 01:53:17;;;;;;;5.93;2.83;;;12.20;99.90;12.20;101245.00;;;;4912007;28;102800;-64
2022/10/28 01:55:46;;;;;;;3.40;2.53;;;12.20;99.90;12.20;101260.00;;;;4916977;28;100882;-63
2022/10/28 01:58:17;;;;;;;3.03;2.33;;;12.20;99.90;12.30;101260.00;;;;4915664;28;99993;-62
2022/10/28 02:00:44;;;;;;;3.43;2.93;;;12.20;99.90;12.30;101256.00;;;;4912306;28;110832;-66
2022/10/28 02:03:10;;;;;;;4.90;3.17;;;12.30;99.90;12.30;101260.00;;;;4915352;28;88007;-63
2022/10/28 02:05:40;;;;;;;4.30;3.13;;;12.30;99.90;12.30;101262.00;;;;4918796;28;108239;-64
2022/10/28 02:08:17;;;;;;;3.03;2.80;;;12.30;99.90;12.40;101266.00;;;;4922324;28;88418;-64
2022/10/28 02:11:18;;;;;;;5.53;2.80;;;12.40;99.90;12.40;101264.00;;;;4918692;28;88692;-63
2022/10/28 02:14:11;;;;;;;4.10;3.50;;;12.70;99.90;12.40;101263.00;;;;4912015;28;95019;-64
2022/10/28 02:16:50;;;;;;;5.80;4.00;;;12.40;99.90;12.40;101255.00;;;;4915772;28;102243;-63
2022/10/28 02:20:17;;;;;;;4.90;3.77;;;12.50;99.90;12.40;101241.00;;;;4914016;28;89039;-63
2022/10/28 02:22:59;;;;;;;3.87;3.33;;;12.50;99.90;12.40;101250.00;;;;4904085;28;87949;-63
2022/10/28 02:25:32;;;;;;;5.87;3.40;;;12.50;99.90;12.50;101242.00;;;;4915198;28;104295;-64
2022/10/28 02:28:06;;;;;;;5.43;3.40;;;12.50;99.90;12.50;101236.00;;;;4919484;28;99754;-63
2022/10/28 02:30:53;;;;;;;4.70;2.57;;;12.50;99.90;12.50;101243.00;;;;4919179;28;112013;-63
2022/10/28 02:33:24;;;;;;;3.77;2.80;;;12.50;99.90;12.60;101247.00;;;;4910610;28;87787;-63
2022/10/28 02:35:55;;;;;;;3.50;3.20;;;12.50;99.90;12.60;101245.00;;;;4912743;28;87963;-64
2022/10/28 02:38:54;;;;;;;3.73;3.17;;;12.60;99.90;12.60;101238.00;;;;4911616;28;101348;-65
2022/10/28 02:41:51;;;;;;;4.77;3.80;;;12.60;99.90;12.60;101227.00;;;;4923309;28;87864;-64
2022/10/28 02:44:25;;;;;;;4.43;3.33;;;12.60;99.90;12.60;101218.00;;;;4919995;28;105708;-65
2022/10/28 02:46:53;;;;;;;5.10;2.87;;;12.60;99.90;12.70;101219.00;;;;4907907;28;89105;-64
2022/10/28 02:49:19;;;;;;;4.97;2.93;;;12.60;99.90;12.70;101215.00;;;;4921800;28;104470;-63
2022/10/28 02:51:52;;;;;;;3.17;2.47;;;12.70;99.90;12.70;101228.00;;;;4916314;28;116789;-63
2022/10/28 02:54:29;;;;;;;2.97;2.40;;;12.70;99.90;12.80;101212.00;;;;4914829;28;108478;-64
2022/10/28 02:57:04;;;;;;;4.57;2.43;;;12.80;99.90;12.80;101217.00;;;;4913533;28;87835;-64
2022/10/28 02:59:30;;;;;;;4.10;2.60;;;12.80;99.90;12.80;101221.00;;;;4907467;28;103309;-64
2022/10/28 03:01:55;;;;;;;5.73;2.63;;;12.80;99.90;12.90;101225.00;;;;4915043;28;117407;-64
2022/10/28 03:04:21;;;;;;;11.67;3.27;;;12.80;99.90;12.90;101215.00;;;;4922477;28;117771;-64
2022/10/28 03:06:47;;;;;;;4.77;2.40;;;12.90;99.90;12.90;101222.00;;;;4919190;28;110425;-63
2022/10/28 03:09:13;;;;;;;6.27;2.80;;;12.90;99.90;13.00;101207.00;;;;4911655;28;107327;-64
2022/10/28 03:11:39;;;;;;;3.27;2.23;;;12.90;99.90;13.10;101219.00;;;;4918223;28;118695;-64
2022/10/28 03:14:04;;;;;;;4.80;2.10;;;13.00;99.90;13.10;101208.00;;;;4918711;28;118623;-63
2022/10/28 03:16:30;;;;;;;2.23;2.10;;;13.10;99.90;13.20;101223.00;;;;4915176;28;111574;-63
2022/10/28 03:18:56;;;;;;;4.20;2.90;;;13.20;99.90;13.30;101216.00;;;;4913476;28;107559;-63
2022/10/28 03:21:21;;;;;;;3.37;2.87;;;13.30;99.90;13.40;101216.00;;;;4912254;28;118480;-63
2022/10/28 03:23:47;;;;;;;2.43;1.87;;;13.30;99.90;13.40;101220.00;;;;4916746;28;115414;-64
2022/10/28 03:26:13;;;;;;;3.90;2.47;;;13.40;99.90;13.50;101219.00;;;;4919213;28;108753;-64
2022/10/28 03:28:38;;;;;;;3.97;3.17;;;13.40;99.90;13.50;101213.00;;;;4912946;28;107227;-64
2022/10/28 03:31:04;;;;;;;3.03;2.77;;;13.50;99.90;13.70;101211.00;;;;4909341;28;117276;-64
2022/10/28 03:33:30;;;;;;;3.17;2.87;;;13.60;99.90;13.80;101213.00;;;;4915360;28;115403;-64
2022/10/28 03:35:55;;;;;;;5.03;3.33;;;13.70;99.90;13.90;101214.00;;;;4917186;28;111289;-64
2022/10/28 03:38:21;;;;;;;3.47;2.40;;;13.80;99.90;14.00;101203.00;;;;4918651;28;108828;-63
2022/10/28 03:40:48;;;;;;;4.60;2.75;;;13.90;99.90;14.10;101202.00;;;;4916261;28;118557;-62
2022/10/28 03:43:14;;;;;;;3.63;2.87;;;14.10;99.90;14.20;101203.00;;;;4912324;28;88016;-63
2022/10/28 03:45:40;;;;;;;3.15;2.30;;;14.10;99.90;14.30;101212.00;;;;4919005;28;88185;-63
2022/10/28 03:48:06;;;;;;;4.20;2.40;;;14.20;99.90;14.30;101204.00;;;;4919236;28;96152;-63
2022/10/28 03:50:31;;;;;;;4.95;3.20;;;14.40;99.90;14.30;101216.00;;;;4912940;28;117228;-62
2022/10/28 03:52:57;;;;;;;4.53;3.13;;;14.20;99.90;14.20;101220.00;;;;4912988;28;118306;-63
2022/10/28 03:55:24;;;;;;;3.27;2.43;;;14.20;99.90;14.20;101211.00;;;;4916106;28;98939;-63
2022/10/28 03:57:51;;;;;;;3.30;2.95;;;14.20;99.90;14.10;101222.00;;;;4912821;28;88421;-63
2022/10/28 04:00:17;;;;;;;4.10;2.43;;;14.20;99.90;14.10;101213.00;;;;4921319;28;89897;-63
2022/10/28 04:02:48;;;;;;;5.13;2.97;;;14.10;99.90;14.00;101215.00;;;;4915972;28;117437;-63
2022/10/28 04:05:14;;;;;;;6.10;3.23;;;14.00;99.90;14.00;101223.00;;;;4912675;28;104237;-63
2022/10/28 04:07:39;;;;;;;2.03;1.83;;;14.00;99.90;13.90;101228.00;;;;4919655;28;101136;-63
2022/10/28 04:10:05;;;;;;;3.70;2.08;;;13.90;99.90;13.80;101216.00;;;;4921857;28;118543;-63
2022/10/28 04:12:31;;;;;;;2.87;1.87;;;13.80;99.90;13.70;101222.00;;;;4913392;28;111482;-63
2022/10/28 04:14:56;;;;;;;4.30;2.40;;;13.70;99.90;13.60;101213.00;;;;4912239;28;111468;-62
2022/10/28 04:17:22;;;;;;;2.17;1.87;;;13.70;99.90;13.50;101213.00;;;;4915646;28;108632;-62
2022/10/28 04:19:48;;;;;;;3.40;2.13;;;13.50;99.90;13.40;101208.00;;;;4914361;28;116642;-62
2022/10/28 04:22:13;;;;;;;2.27;2.03;;;13.50;99.90;13.30;101216.00;;;;4919315;28;116868;-64
2022/10/28 04:24:39;;;;;;;1.90;1.40;;;13.40;99.90;13.20;101217.00;;;;4920751;28;108931;-64
2022/10/28 04:27:05;;;;;;;3.27;1.70;;;13.30;99.90;13.20;101212.00;;;;4912165;28;108349;-64
2022/10/28 04:29:31;;;;;;;3.40;2.03;;;13.20;99.90;13.10;101212.00;;;;4917648;28;117899;-63
2022/10/28 04:31:58;;;;;;;3.63;2.17;;;13.10;99.90;13.00;101211.00;;;;4919631;28;87885;-63
2022/10/28 04:34:24;;;;;;;4.00;2.03;;;13.00;99.90;12.90;101209.00;;;;4913283;28;87750;-63
2022/10/28 04:36:50;;;;;;;2.50;2.00;;;12.90;99.90;12.80;101199.00;;;;4913185;28;87963;-63
2022/10/28 04:39:16;;;;;;;3.60;2.07;;;12.90;99.90;12.80;101200.00;;;;4913763;28;118312;-63
2022/10/28 04:41:41;;;;;;;2.77;2.27;;;12.80;99.90;12.70;101201.00;;;;4912039;28;115420;-64
2022/10/28 04:44:07;;;;;;;4.10;3.00;;;12.80;99.90;12.60;101206.00;;;;4926707;28;110888;-64
2022/10/28 04:46:33;;;;;;;2.53;2.33;;;12.70;99.90;12.60;101209.00;;;;4922738;28;107432;-64
2022/10/28 04:48:58;;;;;;;2.33;2.13;;;12.60;99.90;12.60;101198.00;;;;4912723;28;118580;-64
2022/10/28 04:51:24;;;;;;;4.73;2.60;;;12.60;99.90;12.50;101195.00;;;;4920463;28;89134;-63
2022/10/28 04:53:50;;;;;;;2.73;2.40;;;12.50;99.90;12.50;101195.00;;;;4917960;28;112030;-64
2022/10/28 04:56:15;;;;;;;3.20;2.60;;;12.50;99.90;12.40;101189.00;;;;4919314;28;107221;-64
2022/10/28 04:58:41;;;;;;;4.60;2.27;;;12.50;99.90;12.40;101182.00;;;;4917891;28;117619;-65
2022/10/28 05:01:08;;;;;;;4.40;3.17;;;12.40;99.90;12.40;101187.00;;;;4915547;28;116898;-63
2022/10/28 05:03:35;;;;;;;4.23;3.20;;;12.40;99.90;12.40;101186.00;;;;4918911;28;87880;-64
2022/10/28 05:06:01;;;;;;;4.17;2.60;;;12.40;99.90;12.40;101183.00;;;;4928786;28;101020;-63
2022/10/28 05:08:27;;;;;;;5.53;2.87;;;12.40;99.90;12.30;101174.00;;;;4918551;28;99999;-64
2022/10/28 05:10:53;;;;;;;3.63;2.87;;;12.40;99.90;12.30;101175.00;;;;4914862;28;116511;-63
2022/10/28 05:13:19;;;;;;;5.43;2.97;;;12.30;99.90;12.20;101172.00;;;;4921270;28;89055;-64
2022/10/28 05:15:48;;;;;;;3.73;2.63;;;12.30;99.90;12.20;101174.00;;;;4913613;28;107606;-64
2022/10/28 05:18:13;;;;;;;4.87;2.77;;;12.30;99.90;12.20;101183.00;;;;4919926;28;88722;-63
2022/10/28 05:20:39;;;;;;;3.03;2.57;;;12.20;99.90;12.10;101174.00;;;;4922478;28;88634;-63
2022/10/28 05:23:05;;;;;;;4.17;2.60;;;12.20;99.90;12.10;101176.00;;;;4914769;28;88091;-64
2022/10/28 05:25:31;;;;;;;5.23;3.80;;;12.20;99.90;12.10;101183.00;;;;4920566;28;108231;-63
2022/10/28 05:27:59;;;;;;;3.97;3.23;;;12.10;99.90;12.10;101190.00;;;;4925144;28;117535;-64
2022/10/28 05:30:26;;;;;;;6.17;2.47;;;12.10;99.90;12.00;101190.00;;;;4917545;28;87194;-63
2022/10/28 05:33:01;;;;;;;3.43;3.07;;;12.10;99.90;12.00;101190.00;;;;4914942;28;104306;-63
2022/10/28 05:35:28;;;;;;;5.33;2.97;;;12.00;99.90;12.00;101193.00;;;;4920315;28;87926;-63
2022/10/28 05:37:54;;;;;;;4.83;2.90;;;12.00;99.90;11.90;101199.00;;;;4917324;28;90017;-63
2022/10/28 05:40:20;;;;;;;4.20;3.30;;;12.00;99.90;11.90;101193.00;;;;4923691;28;117549;-63
2022/10/28 05:42:45;;;;;;;5.73;2.83;;;11.90;99.90;11.80;101190.00;;;;4921393;28;87769;-63
2022/10/28 05:45:12;;;;;;;4.27;3.13;;;11.90;99.90;11.80;101183.00;;;;4915391;28;109072;-64
2022/10/28 05:47:45;;;;;;;8.23;3.93;;;11.90;99.90;11.80;101181.00;;;;4917520;28;118084;-62
2022/10/28 05:50:14;;;;;;;4.10;3.70;;;11.80;99.90;11.70;101186.00;;;;4924545;28;108345;-63
2022/10/28 05:52:44;;;;;;;6.83;3.80;;;11.80;99.90;11.70;101179.00;;;;4913821;28;87946;-63
2022/10/28 05:55:10;;;;;;;6.97;3.33;;;11.70;99.90;11.70;101183.00;;;;4912719;28;98534;-63
2022/10/28 05:57:36;;;;;;;4.83;3.90;;;11.70;99.90;11.60;101185.00;;;;4914056;28;117267;-63
2022/10/28 06:00:03;;;;;;;4.80;3.17;;;11.70;99.90;11.60;101185.00;;;;4919356;28;118970;-63
2022/10/28 06:02:29;;;;;;;3.77;3.20;;;11.70;99.90;11.60;101197.00;;;;4923550;28;88964;-63
2022/10/28 06:04:54;;;;;;;4.30;3.60;;;11.60;99.90;11.60;101187.00;;;;4920538;28;107355;-63
2022/10/28 06:07:20;;;;;;;5.13;3.33;;;11.60;99.90;11.60;101185.00;;;;4914321;28;117038;-63
2022/10/28 06:09:46;;;;;;;3.87;2.93;;;11.60;99.90;11.60;101187.00;;;;4921717;28;102484;-63
2022/10/28 06:12:11;;;;;;;7.50;4.43;;;11.60;99.90;11.60;101187.00;;;;4918430;28;110763;-63
2022/10/28 06:14:37;;;;;;;4.73;4.20;;;11.60;99.90;11.60;101190.00;;;;4919682;28;104577;-63
2022/10/28 06:17:03;;;;;;;4.20;3.47;;;11.60;99.90;11.60;101196.00;;;;4914747;28;106616;-63
2022/10/28 06:19:28;;;;;;;4.47;3.40;;;11.60;99.90;11.60;101199.00;;;;4916849;28;102899;-64
2022/10/28 06:21:54;;;;;;;6.13;3.77;;;11.60;99.90;11.70;101195.00;;;;4918657;28;88996;-64
2022/10/28 06:24:20;;;;;;;4.50;3.20;;;11.70;99.90;11.70;101200.00;;;;4927772;28;109543;-65
2022/10/28 06:26:45;;;;;;;6.53;4.17;;;11.70;99.90;11.70;101194.00;;;;4920879;28;118230;-63
2022/10/28 06:29:11;;;;;;;7.10;3.60;;;11.80;99.90;11.80;101202.00;;;;4916338;28;106451;-64
2022/10/28 06:31:43;;;;;;;3.90;2.63;;;11.80;99.90;11.80;101215.00;;;;4922150;28;88884;-64
2022/10/28 06:34:10;;;;;;;5.23;3.70;;;11.80;99.90;11.90;101206.00;;;;4917167;28;88126;-64
2022/10/28 06:36:36;;;;;;;4.23;3.60;;;11.90;99.90;11.90;101213.00;;;;4917033;28;88817;-64
2022/10/28 06:39:01;;;;;;;5.93;4.50;;;11.90;99.90;12.00;101210.00;;;;4916747;28;117913;-64
2022/10/28 06:41:27;;;;;;;10.27;4.77;;;12.00;99.90;12.00;101224.00;;;;4914540;28;109460;-63
2022/10/28 06:43:53;;;;;;;5.63;4.23;;;12.00;99.90;12.10;101221.00;;;;4923301;28;107089;-64
2022/10/28 06:46:18;;;;;;;12.33;4.80;;;12.10;99.90;12.20;101204.00;;;;4924452;28;116381;-63
2022/10/28 06:48:44;;;;;;;6.13;3.87;;;12.20;99.90;12.30;101219.00;;;;4917203;28;116832;-63
2022/10/28 06:51:10;;;;;;;4.57;3.60;;;12.30;99.90;12.50;101216.00;;;;4917315;28;88711;-62
2022/10/28 06:53:35;;;;;;;5.27;3.90;;;12.50;99.90;12.60;101215.00;;;;4921767;28;108464;-62
2022/10/28 06:56:01;;;;;;;5.40;4.47;;;12.60;99.90;12.80;101202.00;;;;4917520;28;93296;-63
2022/10/28 06:58:27;;;;;;;6.13;4.07;;;12.70;99.90;13.00;101212.00;;;;4921810;28;117903;-63
2022/10/28 07:00:53;;;;;;;11.97;4.63;;;12.90;99.90;13.20;101202.00;;;;4916072;28;111337;-63
2022/10/28 07:03:19;;;;;;;4.20;3.67;;;13.10;99.90;13.30;101221.00;;;;4918084;28;88302;-65
2022/10/28 07:05:46;;;;;;;5.80;4.07;;;13.20;99.90;13.50;101213.00;;;;4922151;28;94588;-64
2022/10/28 07:08:13;;;;;;;7.13;3.80;;;13.40;99.90;13.60;101205.00;;;;4915380;28;87750;-64
2022/10/28 07:10:39;;;;;;;6.63;4.07;;;13.60;99.90;13.70;101223.00;;;;4916585;28;87755;-64
2022/10/28 07:13:05;;;;;;;6.07;4.57;;;13.70;99.90;13.90;101221.00;;;;4912100;28;87979;-64
2022/10/28 07:15:30;;;;;;;4.83;4.33;;;13.80;99.90;14.10;101227.00;;;;4915272;28;117907;-63
2022/10/28 07:17:58;;;;;;;8.93;5.23;;;14.00;99.90;14.30;101228.00;;;;4915779;28;103894;-63
2022/10/28 07:20:26;;;;;;;5.23;3.50;;;14.10;99.90;14.50;101235.00;;;;4925935;28;87907;-64
2022/10/28 07:23:10;;;;;;;5.77;3.50;;;14.30;99.90;14.60;101228.00;;;;4918712;28;88307;-63
2022/10/28 07:25:36;;;;;;;5.77;4.20;;;14.50;99.90;14.70;101228.00;;;;4931647;28;117514;-63
2022/10/28 07:28:01;;;;;;;4.97;3.10;;;14.60;99.90;14.70;101232.00;;;;4924162;28;118990;-63
2022/10/28 07:30:28;;;;;;;6.85;4.55;;;14.70;99.90;14.80;101245.00;;;;4920034;28;110401;-62
2022/10/28 07:32:54;;;;;;;5.30;3.20;;;14.70;99.90;15.00;101241.00;;;;4917825;28;86761;-63
2022/10/28 07:35:19;;;;;;;4.43;3.03;;;14.90;99.90;15.10;101245.00;;;;4914670;28;88176;-63
2022/10/28 07:37:45;;;;;;;4.57;3.55;;;15.00;99.90;15.30;101249.00;;;;4917421;28;88916;-63
2022/10/28 07:40:11;;;;;;;4.28;3.20;;;15.20;99.90;15.50;101243.00;;;;4920322;28;88956;-63
2022/10/28 07:42:37;;;;;;;5.60;3.53;;;15.40;99.90;15.70;101235.00;;;;4919333;28;87932;-63
2022/10/28 07:45:04;;;;;;;6.03;4.65;;;15.60;99.90;15.90;101245.00;;;;4911413;28;118494;-63
2022/10/28 07:47:30;;;;;;;4.50;3.30;;;15.80;99.90;16.20;101237.00;;;;4915209;28;88793;-63
2022/10/28 07:49:55;;;;;;;5.10;3.25;;;16.00;99.90;16.40;101247.00;;;;4913221;28;87990;-63
2022/10/28 07:52:21;;;;;;;7.68;3.05;;;16.20;99.90;16.50;101234.00;;;;4910859;28;87795;-63
2022/10/28 07:54:47;;;;;;;4.88;3.65;;;16.40;99.90;16.70;101233.00;;;;4912391;28;118794;-63
2022/10/28 07:57:12;;;;;;;4.55;3.55;;;16.60;99.90;16.90;101231.00;;;;4913657;28;102229;-64
2022/10/28 07:59:38;;;;;;;5.93;3.42;;;16.70;99.90;17.00;101236.00;;;;4912045;28;109888;-64
2022/10/28 08:02:04;;;;;;;3.22;2.90;;;16.90;99.90;17.30;101225.00;;;;4914060;28;88029;-64
2022/10/28 08:04:31;;;;;;;3.95;2.65;;;17.10;99.90;17.60;101231.00;;;;4910307;28;108844;-64
2022/10/28 08:06:57;;;;;;;4.63;2.28;;;17.40;99.90;17.90;101217.00;;;;4908478;28;89691;-64
2022/10/28 08:09:23;;;;;;;6.38;3.40;;;17.70;99.90;18.30;101238.00;;;;4915093;28;90797;-65
2022/10/28 08:11:49;;;;;;;4.32;3.20;;;18.00;99.90;18.80;101240.00;;;;4912783;28;87823;-64
2022/10/28 08:14:15;;;;;;;4.60;2.75;;;18.40;99.90;19.20;101244.00;;;;4915532;28;118078;-63
2022/10/28 08:16:40;;;;;;;2.40;2.20;;;18.90;99.90;19.70;101253.00;;;;4910916;28;110717;-64
2022/10/28 08:19:06;;;;;;;5.47;2.90;;;19.30;99.90;20.00;101252.00;;;;4917145;28;87781;-64
2022/10/28 08:21:32;;;;;;;2.13;1.92;;;19.70;99.90;20.10;101262.00;;;;4919273;28;88357;-64
2022/10/28 08:23:57;;;;;;;4.45;2.85;;;19.90;99.90;20.20;101259.00;;;;4932374;28;116908;-63
2022/10/28 08:26:23;;;;;;;3.90;2.88;;;20.00;99.90;20.00;101264.00;;;;4914248;28;117140;-64
2022/10/28 08:28:49;;;;;;;4.03;2.33;;;19.90;99.90;19.80;101248.00;;;;4916310;28;111160;-63
2022/10/28 08:31:14;;;;;;;8.45;3.05;;;19.80;99.90;19.70;101249.00;;;;4917650;28;108360;-63
2022/10/28 08:33:44;;;;;;;3.63;2.45;;;19.60;99.90;19.70;101247.00;;;;4917189;28;88068;-63
2022/10/28 08:36:15;;;;;;;3.45;2.40;;;19.60;99.90;19.80;101241.00;;;;4918342;28;87742;-63
2022/10/28 08:38:45;;;;;;;3.67;2.28;;;19.60;99.90;20.00;101240.00;;;;4917257;28;88083;-63
2022/10/28 08:41:43;;;;;;;4.47;2.95;;;19.80;99.90;20.30;101252.00;;;;4915857;28;87895;-63
2022/10/28 08:44:53;;;;;;;3.42;3.08;;;20.10;99.90;20.60;101249.00;;;;4917044;28;112062;-63
2022/10/28 08:47:54;;;;;;;3.30;2.00;;;20.40;99.90;21.00;101248.00;;;;4916278;28;87146;-63
2022/10/28 08:50:23;;;;;;;3.67;2.35;;;20.70;99.90;21.30;101236.00;;;;4914732;28;88308;-64
2022/10/28 08:53:02;;;;;;;5.05;2.05;;;21.00;99.90;21.60;101239.00;;;;4915939;28;98248;-63
2022/10/28 08:55:38;;;;;;;3.35;1.98;;;21.30;99.90;21.90;101243.00;;;;4917388;28;90096;-63
2022/10/28 08:58:17;;;;;;;3.63;2.22;;;21.60;99.90;22.20;101252.00;;;;4918852;28;110343;-63
2022/10/28 09:00:50;;;;;;;1.88;1.77;;;21.90;99.90;22.40;101250.00;;;;4915746;28;104138;-63
2022/10/28 09:03:39;;;;;;;3.25;1.83;;;22.10;99.90;22.70;101246.00;;;;4911502;28;100622;-64
2022/10/28 09:06:07;;;;;;;2.15;1.70;;;22.40;99.90;22.80;101236.00;;;;4915500;28;111092;-63
2022/10/28 09:08:39;;;;;;;2.53;1.83;;;22.60;99.00;23.00;101236.00;;;;4914859;28;88029;-64
2022/10/28 09:11:24;;;;;;;4.38;2.28;;;22.70;98.70;23.10;101231.00;;;;4908931;28;102170;-63
2022/10/28 09:14:14;;;;;;;5.25;2.42;;;22.90;97.30;23.30;101236.00;;;;4911228;28;102532;-63
2022/10/28 09:16:43;;;;;;;1.52;1.33;;;23.00;97.10;23.50;101235.00;;;;4916589;28;102633;-64
2022/10/28 09:19:23;;;;;;;8.85;2.38;;;23.20;95.90;23.60;101225.00;;;;4918721;28;117500;-64
2022/10/28 09:22:44;;;;;;;3.53;1.50;;;23.40;95.40;23.70;101224.00;;;;4918632;28;88863;-63
2022/10/28 09:25:32;;;;;;;3.13;1.90;;;23.50;94.60;23.50;101226.00;;;;4910981;28;88146;-64
2022/10/28 09:28:35;;;;;;;7.30;1.92;;;23.40;92.10;23.30;101218.00;;;;4915683;28;88002;-64
2022/10/28 09:31:16;;;;;;;4.68;2.22;;;23.20;92.50;23.30;101223.00;;;;4917465;28;111169;-63
2022/10/28 09:33:58;;;;;;;2.15;1.38;;;23.20;93.00;23.40;101217.00;;;;4917080;28;87873;-64
2022/10/28 09:36:42;;;;;;;4.65;1.80;;;23.20;92.80;23.40;101216.00;;;;4914117;28;87794;-63
2022/10/28 09:39:22;;;;;;;1.63;1.40;;;23.20;92.20;23.30;101216.00;;;;4914467;28;111950;-65
2022/10/28 09:41:49;;;;;;;3.83;2.38;;;23.10;92.80;23.30;101217.00;;;;4919917;28;99340;-64
2022/10/28 09:44:27;;;;;;;3.00;1.88;;;23.10;92.90;23.30;101202.00;;;;4917784;28;87885;-64
2022/10/28 09:46:58;;;;;;;5.25;1.73;;;23.10;92.00;23.20;101206.00;;;;4907766;28;104084;-64
2022/10/28 09:49:30;;;;;;;5.00;1.83;;;23.00;92.20;23.20;101198.00;;;;4917651;28;88849;-64
2022/10/28 09:52:10;;;;;;;4.03;1.67;;;23.00;92.20;23.10;101205.00;;;;4912723;28;89654;-64
2022/10/28 09:54:43;;;;;;;4.20;1.73;;;22.90;92.40;23.10;101211.00;;;;4912565;28;87765;-64
2022/10/28 09:57:09;;;;;;;2.47;1.58;;;22.90;92.50;23.10;101209.00;;;;4913283;28;90822;-64
2022/10/28 09:59:35;;;;;;;2.88;1.55;;;22.80;92.40;23.00;101210.00;;;;4915523;28;117638;-64
2022/10/28 10:02:03;;;;;;;7.85;1.85;;;22.80;92.60;23.00;101194.00;;;;4918209;28;110732;-64
2022/10/28 10:04:34;;;;;;;2.33;1.63;;;22.80;92.60;22.90;101199.00;;;;4918619;28;95445;-63
2022/10/28 10:07:08;;;;;;;2.08;1.23;;;22.70;92.30;22.70;101190.00;;;;4908796;28;87071;-63
2022/10/28 10:09:36;;;;;;;2.10;1.63;;;22.60;91.40;22.60;101188.00;;;;4915991;28;97181;-63
2022/10/28 10:12:07;;;;;;;2.85;1.60;;;22.50;91.80;22.50;101198.00;;;;4919453;28;98797;-63
2022/10/28 10:14:46;;;;;;;1.30;0.93;;;22.40;92.00;22.50;101190.00;;;;4913012;28;88680;-64
2022/10/28 10:17:20;;;;;;;3.20;1.58;;;22.30;92.20;22.50;101186.00;;;;4915990;28;88044;-64
2022/10/28 10:20:16;;;;;;;4.00;1.45;;;22.30;92.40;22.70;101182.00;;;;4910567;28;111731;-64
2022/10/28 10:22:45;;;;;;;2.63;1.52;;;22.50;92.60;22.90;101179.00;;;;4913855;28;109706;-62
2022/10/28 10:25:16;;;;;;;1.88;1.45;;;22.60;92.30;23.20;101185.00;;;;4921802;28;87737;-64
2022/10/28 10:28:01;;;;;;;2.97;1.10;;;22.80;91.80;23.30;101181.00;;;;4916141;28;106194;-63
2022/10/28 10:30:39;;;;;;;3.13;1.75;;;23.00;91.50;23.40;101181.00;;;;4912106;28;89089;-63
2022/10/28 10:33:06;;;;;;;2.45;1.40;;;23.10;91.40;23.40;101178.00;;;;4916127;28;88973;-63
2022/10/28 10:35:36;;;;;;;2.92;1.23;;;23.20;91.30;23.50;101173.00;;;;4915342;28;87814;-64
2022/10/28 10:38:05;;;;;;;1.95;1.27;;;23.20;91.00;23.70;101164.00;;;;4915894;28;94699;-64
2022/10/28 10:40:45;;;;;;;1.30;1.20;;;23.40;90.90;24.10;101150.00;;;;4917609;28;101587;-63
2022/10/28 10:43:17;;;;;;;2.58;1.80;;;23.70;90.00;24.50;101151.00;;;;4910364;28;89659;-64
2022/10/28 10:45:57;;;;;;;3.05;2.28;;;24.10;89.40;24.90;101154.00;;;;4919750;28;110655;-64
2022/10/28 10:48:23;;;;;;;2.42;1.50;;;24.50;86.50;25.30;101152.00;;;;4918361;28;94369;-64
2022/10/28 10:50:50;;;;;;;3.40;2.00;;;24.90;85.60;25.80;101145.00;;;;4912180;28;118786;-64
2022/10/28 10:53:23;;;;;;;7.45;1.20;;;25.30;85.10;26.10;101141.00;;;;4916487;28;89163;-64
2022/10/28 10:56:00;;;;;;;1.27;1.17;;;25.80;80.70;26.50;101134.00;;;;4915146;28;88060;-63
2022/10/28 10:58:30;;;;;;;2.97;1.05;;;26.00;78.70;26.80;101140.00;;;;4912603;28;87070;-64
2022/10/28 11:00:59;;;;;;;2.13;1.23;;;26.30;77.40;27.30;101135.00;;;;4921812;28;88982;-66